sensor_id;sensor_type;location;lat;lon;timestamp;temperature;humidity
1992;DHT22;997;48.448;8.924;2024-03-17T00:01:36;10.30;99.90
1992;DHT22;997;48.448;8.924;2024-03-17T00:04:01;10.20;99.90
1992;DHT22;997;48.448;8.924;2024-03-17T00:06:27;10.20;99.90
1992;DHT22;997;48.448;8.924;2024-03-17T00:08:53;10.20;99.90
1992;DHT22;997;48.448;8.924;2024-03-17T00:11:20;10.20;99.90
1992;DHT22;997;48.448;8.924;2024-03-17T00:13:46;10.20;99.90
1992;DHT22;997;48.448;8.924;2024-03-17T00:16:11;10.00;99.90
1992;DHT22;997;48.448;8.924;2024-03-17T00:18:38;10.10;99.90
1992;DHT22;997;48.448;8.924;2024-03-17T00:21:04;10.10;99.90
1992;DHT22;997;48.448;8.924;2024-03-17T00:23:30;10.10;99.90
1992;DHT22;997;48.448;8.924;2024-03-17T00:25:55;10.10;99.90
1992;DHT22;997;48.448;8.924;2024-03-17T00:28:21;10.00;99.90
1992;DHT22;997;48.448;8.924;2024-03-17T00:30:46;10.00;99.90
1992;DHT22;997;48.448;8.924;2024-03-17T00:33:12;10.00;99.90
1992;DHT22;997;48.448;8.924;2024-03-17T00:35:39;10.00;99.90
1992;DHT22;997;48.448;8.924;2024-03-17T00:38:05;10.00;99.90
1992;DHT22;997;48.448;8.924;2024-03-17T00:40:38;10.00;99.90
1992;DHT22;997;48.448;8.924;2024-03-17T00:43:06;10.00;99.90
1992;DHT22;997;48.448;8.924;2024-03-17T00:45:31;10.00;99.90
1992;DHT22;997;48.448;8.924;2024-03-17T00:47:57;9.80;99.90
1992;DHT22;997;48.448;8.924;2024-03-17T00:50:23;9.90;99.90
1992;DHT22;997;48.448;8.924;2024-03-17T00:52:48;9.90;99.90
1992;DHT22;997;48.448;8.924;2024-03-17T00:55:14;9.60;99.90
1992;DHT22;997;48.448;8.924;2024-03-17T00:57:42;9.60;99.90
1992;DHT22;997;48.448;8.924;2024-03-17T01:00:08;9.50;99.90
1992;DHT22;997;48.448;8.924;2024-03-17T01:02:37;9.50;99.90
1992;DHT22;997;48.448;8.924;2024-03-17T01:05:03;9.50;99.90
1992;DHT22;997;48.448;8.924;2024-03-17T01:07:31;9.50;99.90
1992;DHT22;997;48.448;8.924;2024-03-17T01:09:57;9.50;99.90
1992;DHT22;997;48.448;8.924;2024-03-17T01:12:22;9.50;99.90
1992;DHT22;997;48.448;8.924;2024-03-17T01:14:48;9.50;99.90
1992;DHT22;997;48.448;8.924;2024-03-17T01:17:13;9.40;99.90
1992;DHT22;997;48.448;8.924;2024-03-17T01:19:39;9.30;99.90
1992;DHT22;997;48.448;8.924;2024-03-17T01:22:04;9.30;99.90
1992;DHT22;997;48.448;8.924;2024-03-17T01:24:30;9.30;99.90
1992;DHT22;997;48.448;8.924;2024-03-17T01:26:58;9.10;99.90
1992;DHT22;997;48.448;8.924;2024-03-17T01:29:24;9.20;99.90
1992;DHT22;997;48.448;8.924;2024-03-17T01:31:49;9.30;99.90
1992;DHT22;997;48.448;8.924;2024-03-17T01:34:16;9.20;99.90
1992;DHT22;997;48.448;8.924;2024-03-17T01:36:41;9.20;99.90
1992;DHT22;997;48.448;8.924;2024-03-17T01:39:07;9.20;99.90
1992;DHT22;997;48.448;8.924;2024-03-17T01:41:33;9.30;99.90
1992;DHT22;997;48.448;8.924;2024-03-17T01:43:58;9.30;99.90
1992;DHT22;997;48.448;8.924;2024-03-17T01:46:24;9.40;99.90
1992;DHT22;997;48.448;8.924;2024-03-17T01:48:50;9.40;99.90
1992;DHT22;997;48.448;8.924;2024-03-17T01:51:17;9.40;99.90
1992;DHT22;997;48.448;8.924;2024-03-17T01:53:44;9.40;99.90
1992;DHT22;997;48.448;8.924;2024-03-17T01:56:10;9.40;99.90
1992;DHT22;997;48.448;8.924;2024-03-17T01:58:37;9.40;99.90
1992;DHT22;997;48.448;8.924;2024-03-17T02:01:02;9.20;99.90
1992;DHT22;997;48.448;8.924;2024-03-17T02:03:29;9.10;99.90
1992;DHT22;997;48.448;8.924;2024-03-17T02:05:55;9.10;99.90
1992;DHT22;997;48.448;8.924;2024-03-17T02:08:20;9.20;99.90
1992;DHT22;997;48.448;8.924;2024-03-17T02:10:52;9.20;99.90
1992;DHT22;997;48.448;8.924;2024-03-17T02:13:19;9.10;99.90
1992;DHT22;997;48.448;8.924;2024-03-17T02:15:44;9.20;99.90
1992;DHT22;997;48.448;8.924;2024-03-17T02:18:10;9.30;99.90
1992;DHT22;997;48.448;8.924;2024-03-17T02:20:35;9.30;99.90
1992;DHT22;997;48.448;8.924;2024-03-17T02:23:19;9.30;99.90
1992;DHT22;997;48.448;8.924;2024-03-17T02:25:45;9.30;99.90
1992;DHT22;997;48.448;8.924;2024-03-17T02:28:12;9.30;99.90
1992;DHT22;997;48.448;8.924;2024-03-17T02:30:37;9.40;99.90
1992;DHT22;997;48.448;8.924;2024-03-17T02:33:03;9.40;99.90
1992;DHT22;997;48.448;8.924;2024-03-17T02:35:29;9.30;99.90
1992;DHT22;997;48.448;8.924;2024-03-17T02:37:54;9.40;99.90
1992;DHT22;997;48.448;8.924;2024-03-17T02:40:20;9.40;99.90
1992;DHT22;997;48.448;8.924;2024-03-17T02:42:46;9.40;99.90
1992;DHT22;997;48.448;8.924;2024-03-17T02:45:12;9.40;99.90
1992;DHT22;997;48.448;8.924;2024-03-17T02:47:38;9.50;99.90
1992;DHT22;997;48.448;8.924;2024-03-17T02:50:04;9.50;99.90
1992;DHT22;997;48.448;8.924;2024-03-17T02:52:30;9.50;99.90
1992;DHT22;997;48.448;8.924;2024-03-17T02:54:55;9.60;99.90
1992;DHT22;997;48.448;8.924;2024-03-17T02:57:22;9.70;99.90
1992;DHT22;997;48.448;8.924;2024-03-17T02:59:50;9.70;99.90
1992;DHT22;997;48.448;8.924;2024-03-17T03:02:17;9.80;99.90
1992;DHT22;997;48.448;8.924;2024-03-17T03:04:42;9.80;99.90
1992;DHT22;997;48.448;8.924;2024-03-17T03:07:08;9.80;99.90
1992;DHT22;997;48.448;8.924;2024-03-17T03:09:34;9.90;99.90
1992;DHT22;997;48.448;8.924;2024-03-17T03:12:00;9.80;99.90
1992;DHT22;997;48.448;8.924;2024-03-17T03:14:28;9.80;99.90
1992;DHT22;997;48.448;8.924;2024-03-17T03:16:54;9.80;99.90
1992;DHT22;997;48.448;8.924;2024-03-17T03:19:19;9.60;99.90
1992;DHT22;997;48.448;8.924;2024-03-17T03:21:47;9.60;99.90
1992;DHT22;997;48.448;8.924;2024-03-17T03:24:14;9.50;99.90
1992;DHT22;997;48.448;8.924;2024-03-17T03:26:39;9.40;99.90
1992;DHT22;997;48.448;8.924;2024-03-17T03:29:05;9.50;99.90
1992;DHT22;997;48.448;8.924;2024-03-17T03:31:34;9.40;99.90
1992;DHT22;997;48.448;8.924;2024-03-17T03:34:00;9.40;99.90
1992;DHT22;997;48.448;8.924;2024-03-17T03:36:29;9.30;99.90
1992;DHT22;997;48.448;8.924;2024-03-17T03:38:55;9.10;99.90
1992;DHT22;997;48.448;8.924;2024-03-17T03:41:23;9.00;99.90
1992;DHT22;997;48.448;8.924;2024-03-17T03:43:50;9.00;99.90
1992;DHT22;997;48.448;8.924;2024-03-17T03:46:15;9.10;99.90
1992;DHT22;997;48.448;8.924;2024-03-17T03:48:41;9.20;99.90
1992;DHT22;997;48.448;8.924;2024-03-17T03:51:07;9.20;99.90
1992;DHT22;997;48.448;8.924;2024-03-17T03:53:33;9.00;99.90
1992;DHT22;997;48.448;8.924;2024-03-17T03:56:02;8.90;99.90
1992;DHT22;997;48.448;8.924;2024-03-17T03:58:34;8.50;99.90
1992;DHT22;997;48.448;8.924;2024-03-17T04:01:07;8.40;99.90
1992;DHT22;997;48.448;8.924;2024-03-17T04:03:34;8.50;99.90
1992;DHT22;997;48.448;8.924;2024-03-17T04:06:02;8.60;99.90
1992;DHT22;997;48.448;8.924;2024-03-17T04:08:29;8.70;99.90
1992;DHT22;997;48.448;8.924;2024-03-17T04:10:55;8.60;99.90
1992;DHT22;997;48.448;8.924;2024-03-17T04:13:21;8.60;99.90
1992;DHT22;997;48.448;8.924;2024-03-17T04:15:48;8.70;99.90
1992;DHT22;997;48.448;8.924;2024-03-17T04:18:13;8.70;99.90
1992;DHT22;997;48.448;8.924;2024-03-17T04:20:41;8.70;99.90
1992;DHT22;997;48.448;8.924;2024-03-17T04:23:07;8.60;99.90
1992;DHT22;997;48.448;8.924;2024-03-17T04:25:33;8.50;99.90
1992;DHT22;997;48.448;8.924;2024-03-17T04:27:58;8.50;99.90
1992;DHT22;997;48.448;8.924;2024-03-17T04:30:24;8.50;99.90
1992;DHT22;997;48.448;8.924;2024-03-17T04:32:49;8.50;99.90
1992;DHT22;997;48.448;8.924;2024-03-17T04:35:15;8.50;99.90
1992;DHT22;997;48.448;8.924;2024-03-17T04:37:42;8.40;99.90
1992;DHT22;997;48.448;8.924;2024-03-17T04:40:08;8.40;99.90
1992;DHT22;997;48.448;8.924;2024-03-17T04:42:35;8.30;99.90
1992;DHT22;997;48.448;8.924;2024-03-17T04:45:00;8.30;99.90
1992;DHT22;997;48.448;8.924;2024-03-17T04:47:26;8.40;99.90
1992;DHT22;997;48.448;8.924;2024-03-17T04:49:51;8.60;99.90
1992;DHT22;997;48.448;8.924;2024-03-17T04:52:18;8.70;99.90
1992;DHT22;997;48.448;8.924;2024-03-17T04:54:43;8.70;99.90
1992;DHT22;997;48.448;8.924;2024-03-17T04:57:09;8.70;99.90
1992;DHT22;997;48.448;8.924;2024-03-17T04:59:35;8.70;99.90
1992;DHT22;997;48.448;8.924;2024-03-17T05:02:01;8.70;99.90
1992;DHT22;997;48.448;8.924;2024-03-17T05:04:27;8.80;99.90
1992;DHT22;997;48.448;8.924;2024-03-17T05:06:53;8.90;99.90
1992;DHT22;997;48.448;8.924;2024-03-17T05:09:19;8.90;99.90
1992;DHT22;997;48.448;8.924;2024-03-17T05:11:45;9.00;99.90
1992;DHT22;997;48.448;8.924;2024-03-17T05:14:11;9.20;99.90
1992;DHT22;997;48.448;8.924;2024-03-17T05:16:37;9.30;99.90
1992;DHT22;997;48.448;8.924;2024-03-17T05:19:03;9.30;99.90
1992;DHT22;997;48.448;8.924;2024-03-17T05:21:29;9.40;99.90
1992;DHT22;997;48.448;8.924;2024-03-17T05:24:00;9.40;99.90
1992;DHT22;997;48.448;8.924;2024-03-17T05:26:26;9.40;99.90
1992;DHT22;997;48.448;8.924;2024-03-17T05:28:52;9.30;99.90
1992;DHT22;997;48.448;8.924;2024-03-17T05:31:18;9.20;99.90
1992;DHT22;997;48.448;8.924;2024-03-17T05:33:46;9.00;99.90
1992;DHT22;997;48.448;8.924;2024-03-17T05:36:12;8.90;99.90
1992;DHT22;997;48.448;8.924;2024-03-17T05:38:38;8.80;99.90
1992;DHT22;997;48.448;8.924;2024-03-17T05:41:05;9.00;99.90
1992;DHT22;997;48.448;8.924;2024-03-17T05:43:33;9.00;99.90
1992;DHT22;997;48.448;8.924;2024-03-17T05:46:00;9.10;99.90
1992;DHT22;997;48.448;8.924;2024-03-17T05:48:29;9.10;99.90
1992;DHT22;997;48.448;8.924;2024-03-17T05:50:55;9.10;99.90
1992;DHT22;997;48.448;8.924;2024-03-17T05:53:21;9.20;99.90
1992;DHT22;997;48.448;8.924;2024-03-17T05:55:49;9.30;99.90
1992;DHT22;997;48.448;8.924;2024-03-17T05:58:15;9.30;99.90
1992;DHT22;997;48.448;8.924;2024-03-17T06:00:40;9.40;99.90
1992;DHT22;997;48.448;8.924;2024-03-17T06:03:06;9.30;99.90
1992;DHT22;997;48.448;8.924;2024-03-17T06:05:36;9.40;99.90
1992;DHT22;997;48.448;8.924;2024-03-17T06:08:03;9.20;99.90
1992;DHT22;997;48.448;8.924;2024-03-17T06:10:30;9.20;99.90
1992;DHT22;997;48.448;8.924;2024-03-17T06:12:56;9.10;99.90
1992;DHT22;997;48.448;8.924;2024-03-17T06:15:25;9.20;99.90
1992;DHT22;997;48.448;8.924;2024-03-17T06:17:52;9.10;99.90
1992;DHT22;997;48.448;8.924;2024-03-17T06:20:25;9.20;99.90
1992;DHT22;997;48.448;8.924;2024-03-17T06:22:54;9.40;99.90
1992;DHT22;997;48.448;8.924;2024-03-17T06:25:20;9.40;99.90
1992;DHT22;997;48.448;8.924;2024-03-17T06:27:51;9.30;99.90
1992;DHT22;997;48.448;8.924;2024-03-17T06:30:16;9.30;99.90
1992;DHT22;997;48.448;8.924;2024-03-17T06:32:43;9.30;99.90
1992;DHT22;997;48.448;8.924;2024-03-17T06:35:11;9.40;99.90
1992;DHT22;997;48.448;8.924;2024-03-17T06:37:36;9.50;99.90
1992;DHT22;997;48.448;8.924;2024-03-17T06:40:03;9.60;99.90
1992;DHT22;997;48.448;8.924;2024-03-17T06:42:29;9.60;99.90
1992;DHT22;997;48.448;8.924;2024-03-17T06:44:55;9.60;99.90
1992;DHT22;997;48.448;8.924;2024-03-17T06:47:20;9.80;99.90
1992;DHT22;997;48.448;8.924;2024-03-17T06:49:46;9.90;99.90
1992;DHT22;997;48.448;8.924;2024-03-17T06:52:12;10.00;99.90
1992;DHT22;997;48.448;8.924;2024-03-17T06:54:37;10.00;99.90
1992;DHT22;997;48.448;8.924;2024-03-17T06:57:03;10.00;99.90
1992;DHT22;997;48.448;8.924;2024-03-17T06:59:28;10.10;99.90
1992;DHT22;997;48.448;8.924;2024-03-17T07:01:58;10.10;99.90
1992;DHT22;997;48.448;8.924;2024-03-17T07:04:23;10.10;99.90
1992;DHT22;997;48.448;8.924;2024-03-17T07:06:49;10.10;99.90
1992;DHT22;997;48.448;8.924;2024-03-17T07:09:15;10.10;99.90
1992;DHT22;997;48.448;8.924;2024-03-17T07:11:42;10.00;99.90
1992;DHT22;997;48.448;8.924;2024-03-17T07:14:11;9.90;99.90
1992;DHT22;997;48.448;8.924;2024-03-17T07:16:36;10.00;99.90
1992;DHT22;997;48.448;8.924;2024-03-17T07:19:02;10.00;99.90
1992;DHT22;997;48.448;8.924;2024-03-17T07:21:28;10.10;99.90
1992;DHT22;997;48.448;8.924;2024-03-17T07:23:53;10.20;99.90
1992;DHT22;997;48.448;8.924;2024-03-17T07:26:19;10.30;99.90
1992;DHT22;997;48.448;8.924;2024-03-17T07:28:44;10.40;99.90
1992;DHT22;997;48.448;8.924;2024-03-17T07:31:10;10.50;99.90
1992;DHT22;997;48.448;8.924;2024-03-17T07:33:37;10.50;99.90
1992;DHT22;997;48.448;8.924;2024-03-17T07:36:03;10.60;99.90
1992;DHT22;997;48.448;8.924;2024-03-17T07:38:31;10.70;99.90
1992;DHT22;997;48.448;8.924;2024-03-17T07:40:59;10.80;99.90
1992;DHT22;997;48.448;8.924;2024-03-17T07:43:25;10.80;99.90
1992;DHT22;997;48.448;8.924;2024-03-17T07:46:04;10.90;99.90
1992;DHT22;997;48.448;8.924;2024-03-17T07:48:33;10.90;99.90
1992;DHT22;997;48.448;8.924;2024-03-17T07:51:05;11.00;99.90
1992;DHT22;997;48.448;8.924;2024-03-17T07:53:32;11.20;99.90
1992;DHT22;997;48.448;8.924;2024-03-17T07:56:02;11.20;99.90
1992;DHT22;997;48.448;8.924;2024-03-17T07:58:31;11.20;99.90
1992;DHT22;997;48.448;8.924;2024-03-17T08:01:01;10.80;99.90
1992;DHT22;997;48.448;8.924;2024-03-17T08:03:28;10.90;99.90
1992;DHT22;997;48.448;8.924;2024-03-17T08:05:55;10.70;99.90
1992;DHT22;997;48.448;8.924;2024-03-17T08:08:21;10.80;99.90
1992;DHT22;997;48.448;8.924;2024-03-17T08:10:47;11.00;99.90
1992;DHT22;997;48.448;8.924;2024-03-17T08:13:16;10.90;99.90
1992;DHT22;997;48.448;8.924;2024-03-17T08:15:43;10.80;99.90
1992;DHT22;997;48.448;8.924;2024-03-17T08:18:09;10.80;99.90
1992;DHT22;997;48.448;8.924;2024-03-17T08:20:39;10.90;99.90
1992;DHT22;997;48.448;8.924;2024-03-17T08:23:05;11.00;99.90
1992;DHT22;997;48.448;8.924;2024-03-17T08:25:33;11.10;99.90
1992;DHT22;997;48.448;8.924;2024-03-17T08:27:59;11.10;99.90
1992;DHT22;997;48.448;8.924;2024-03-17T08:30:25;11.20;99.90
1992;DHT22;997;48.448;8.924;2024-03-17T08:32:51;11.20;99.90
1992;DHT22;997;48.448;8.924;2024-03-17T08:35:17;11.00;99.90
1992;DHT22;997;48.448;8.924;2024-03-17T08:37:42;11.00;99.90
1992;DHT22;997;48.448;8.924;2024-03-17T08:40:09;11.10;99.90
1992;DHT22;997;48.448;8.924;2024-03-17T08:42:35;11.20;99.90
1992;DHT22;997;48.448;8.924;2024-03-17T08:45:01;11.20;99.90
1992;DHT22;997;48.448;8.924;2024-03-17T08:47:28;11.30;99.90
1992;DHT22;997;48.448;8.924;2024-03-17T08:49:54;11.20;99.90
1992;DHT22;997;48.448;8.924;2024-03-17T08:52:19;11.20;99.90
1992;DHT22;997;48.448;8.924;2024-03-17T08:54:47;11.20;99.90
1992;DHT22;997;48.448;8.924;2024-03-17T08:57:13;11.20;99.90
1992;DHT22;997;48.448;8.924;2024-03-17T08:59:38;11.20;99.90
1992;DHT22;997;48.448;8.924;2024-03-17T09:02:05;11.10;99.90
1992;DHT22;997;48.448;8.924;2024-03-17T09:04:35;11.00;99.90
1992;DHT22;997;48.448;8.924;2024-03-17T09:07:01;10.90;99.90
1992;DHT22;997;48.448;8.924;2024-03-17T09:09:29;11.00;99.90
1992;DHT22;997;48.448;8.924;2024-03-17T09:11:55;11.20;99.90
1992;DHT22;997;48.448;8.924;2024-03-17T09:14:20;11.40;99.90
1992;DHT22;997;48.448;8.924;2024-03-17T09:16:47;11.50;99.90
1992;DHT22;997;48.448;8.924;2024-03-17T09:19:13;11.70;99.90
1992;DHT22;997;48.448;8.924;2024-03-17T09:21:38;11.70;99.90
1992;DHT22;997;48.448;8.924;2024-03-17T09:24:06;11.80;99.90
1992;DHT22;997;48.448;8.924;2024-03-17T09:26:33;11.80;99.90
1992;DHT22;997;48.448;8.924;2024-03-17T09:28:59;11.80;99.90
1992;DHT22;997;48.448;8.924;2024-03-17T09:31:25;11.70;99.90
1992;DHT22;997;48.448;8.924;2024-03-17T09:33:51;11.70;99.90
1992;DHT22;997;48.448;8.924;2024-03-17T09:36:17;11.80;99.90
1992;DHT22;997;48.448;8.924;2024-03-17T09:38:44;11.90;99.90
1992;DHT22;997;48.448;8.924;2024-03-17T09:41:20;11.90;99.90
1992;DHT22;997;48.448;8.924;2024-03-17T09:43:47;11.90;99.90
1992;DHT22;997;48.448;8.924;2024-03-17T09:46:14;11.90;99.90
1992;DHT22;997;48.448;8.924;2024-03-17T09:48:40;11.90;99.90
1992;DHT22;997;48.448;8.924;2024-03-17T09:51:06;12.10;99.90
1992;DHT22;997;48.448;8.924;2024-03-17T09:53:33;12.20;99.90
1992;DHT22;997;48.448;8.924;2024-03-17T09:56:08;12.50;99.90
1992;DHT22;997;48.448;8.924;2024-03-17T09:58:34;12.70;99.90
1992;DHT22;997;48.448;8.924;2024-03-17T10:01:00;12.90;99.90
1992;DHT22;997;48.448;8.924;2024-03-17T10:03:46;13.10;99.90
1992;DHT22;997;48.448;8.924;2024-03-17T10:06:16;13.30;99.90
1992;DHT22;997;48.448;8.924;2024-03-17T10:08:49;13.40;99.90
1992;DHT22;997;48.448;8.924;2024-03-17T10:11:19;13.70;99.90
1992;DHT22;997;48.448;8.924;2024-03-17T10:13:58;14.00;99.90
1992;DHT22;997;48.448;8.924;2024-03-17T10:16:26;13.90;99.90
1992;DHT22;997;48.448;8.924;2024-03-17T10:21:38;14.20;99.90
1992;DHT22;997;48.448;8.924;2024-03-17T10:24:11;14.20;99.90
1992;DHT22;997;48.448;8.924;2024-03-17T10:27:01;14.20;99.90
1992;DHT22;997;48.448;8.924;2024-03-17T10:29:34;14.20;99.90
1992;DHT22;997;48.448;8.924;2024-03-17T10:32:11;14.20;99.90
1992;DHT22;997;48.448;8.924;2024-03-17T10:34:38;14.30;99.90
1992;DHT22;997;48.448;8.924;2024-03-17T10:37:08;14.40;99.90
1992;DHT22;997;48.448;8.924;2024-03-17T10:39:38;14.50;99.90
1992;DHT22;997;48.448;8.924;2024-03-17T10:42:05;14.70;99.90
1992;DHT22;997;48.448;8.924;2024-03-17T10:44:32;14.70;99.90
1992;DHT22;997;48.448;8.924;2024-03-17T10:47:00;14.70;99.90
1992;DHT22;997;48.448;8.924;2024-03-17T10:49:37;14.80;99.90
1992;DHT22;997;48.448;8.924;2024-03-17T10:52:04;14.80;99.90
1992;DHT22;997;48.448;8.924;2024-03-17T10:54:31;14.70;99.90
1992;DHT22;997;48.448;8.924;2024-03-17T10:57:09;14.70;99.90
1992;DHT22;997;48.448;8.924;2024-03-17T10:59:46;14.70;99.90
1992;DHT22;997;48.448;8.924;2024-03-17T11:04:52;14.60;99.90
1992;DHT22;997;48.448;8.924;2024-03-17T11:07:19;14.60;99.90
1992;DHT22;997;48.448;8.924;2024-03-17T11:09:45;14.80;99.90
1992;DHT22;997;48.448;8.924;2024-03-17T11:17:46;14.90;99.90
1992;DHT22;997;48.448;8.924;2024-03-17T11:20:25;15.00;99.90
1992;DHT22;997;48.448;8.924;2024-03-17T11:22:57;15.00;99.90
1992;DHT22;997;48.448;8.924;2024-03-17T11:27:51;15.20;99.90
1992;DHT22;997;48.448;8.924;2024-03-17T11:38:58;15.40;99.90
1992;DHT22;997;48.448;8.924;2024-03-17T11:41:38;15.30;99.90
1992;DHT22;997;48.448;8.924;2024-03-17T11:47:03;15.30;99.90
1992;DHT22;997;48.448;8.924;2024-03-17T11:49:32;15.40;99.90
1992;DHT22;997;48.448;8.924;2024-03-17T11:52:01;15.30;99.90
1992;DHT22;997;48.448;8.924;2024-03-17T11:54:37;15.10;99.90
1992;DHT22;997;48.448;8.924;2024-03-17T11:57:12;15.20;99.90
1992;DHT22;997;48.448;8.924;2024-03-17T11:59:45;15.10;99.90
1992;DHT22;997;48.448;8.924;2024-03-17T12:02:17;14.90;99.90
1992;DHT22;997;48.448;8.924;2024-03-17T12:04:43;14.90;99.90
1992;DHT22;997;48.448;8.924;2024-03-17T12:07:14;14.80;99.90
1992;DHT22;997;48.448;8.924;2024-03-17T12:09:41;14.90;99.90
1992;DHT22;997;48.448;8.924;2024-03-17T12:12:19;14.90;99.90
1992;DHT22;997;48.448;8.924;2024-03-17T12:14:45;15.10;99.90
1992;DHT22;997;48.448;8.924;2024-03-17T12:17:13;15.10;99.90
1992;DHT22;997;48.448;8.924;2024-03-17T12:19:44;15.10;99.90
1992;DHT22;997;48.448;8.924;2024-03-17T12:22:18;15.30;99.90
1992;DHT22;997;48.448;8.924;2024-03-17T12:24:53;15.40;99.90
1992;DHT22;997;48.448;8.924;2024-03-17T12:27:21;15.40;99.90
1992;DHT22;997;48.448;8.924;2024-03-17T12:29:57;15.50;99.90
1992;DHT22;997;48.448;8.924;2024-03-17T12:32:24;15.20;99.90
1992;DHT22;997;48.448;8.924;2024-03-17T12:34:51;15.20;99.90
1992;DHT22;997;48.448;8.924;2024-03-17T12:37:22;15.40;99.90
1992;DHT22;997;48.448;8.924;2024-03-17T12:39:49;15.60;99.90
1992;DHT22;997;48.448;8.924;2024-03-17T12:42:16;15.60;99.90
1992;DHT22;997;48.448;8.924;2024-03-17T12:44:59;15.70;99.90
1992;DHT22;997;48.448;8.924;2024-03-17T12:47:30;15.80;99.90
1992;DHT22;997;48.448;8.924;2024-03-17T12:49:59;15.60;99.90
1992;DHT22;997;48.448;8.924;2024-03-17T12:52:33;15.60;99.90
1992;DHT22;997;48.448;8.924;2024-03-17T12:55:02;15.60;99.90
1992;DHT22;997;48.448;8.924;2024-03-17T12:57:49;15.60;99.90
1992;DHT22;997;48.448;8.924;2024-03-17T13:00:34;15.40;99.90
1992;DHT22;997;48.448;8.924;2024-03-17T13:03:01;15.30;99.90
1992;DHT22;997;48.448;8.924;2024-03-17T13:05:28;15.30;99.90
1992;DHT22;997;48.448;8.924;2024-03-17T13:07:54;15.40;99.90
1992;DHT22;997;48.448;8.924;2024-03-17T13:10:24;15.60;99.90
1992;DHT22;997;48.448;8.924;2024-03-17T13:12:59;15.60;99.90
1992;DHT22;997;48.448;8.924;2024-03-17T13:15:26;15.60;99.90
1992;DHT22;997;48.448;8.924;2024-03-17T13:17:51;15.80;99.90
1992;DHT22;997;48.448;8.924;2024-03-17T13:20:17;15.70;99.90
1992;DHT22;997;48.448;8.924;2024-03-17T13:22:44;15.50;99.90
1992;DHT22;997;48.448;8.924;2024-03-17T13:25:18;15.20;99.90
1992;DHT22;997;48.448;8.924;2024-03-17T13:27:45;15.40;99.90
1992;DHT22;997;48.448;8.924;2024-03-17T13:30:14;15.50;99.90
1992;DHT22;997;48.448;8.924;2024-03-17T13:32:40;15.60;99.90
1992;DHT22;997;48.448;8.924;2024-03-17T13:35:18;15.80;99.90
1992;DHT22;997;48.448;8.924;2024-03-17T13:37:49;15.90;99.90
1992;DHT22;997;48.448;8.924;2024-03-17T13:40:16;15.70;99.90
1992;DHT22;997;48.448;8.924;2024-03-17T13:42:47;15.50;99.90
1992;DHT22;997;48.448;8.924;2024-03-17T13:45:14;15.30;99.90
1992;DHT22;997;48.448;8.924;2024-03-17T13:47:40;15.10;99.90
1992;DHT22;997;48.448;8.924;2024-03-17T13:50:06;15.10;99.90
1992;DHT22;997;48.448;8.924;2024-03-17T13:52:45;15.00;99.90
1992;DHT22;997;48.448;8.924;2024-03-17T13:55:22;15.00;99.90
1992;DHT22;997;48.448;8.924;2024-03-17T13:57:53;14.90;99.90
1992;DHT22;997;48.448;8.924;2024-03-17T14:00:24;15.00;99.90
1992;DHT22;997;48.448;8.924;2024-03-17T14:02:51;15.10;99.90
1992;DHT22;997;48.448;8.924;2024-03-17T14:05:22;15.30;99.90
1992;DHT22;997;48.448;8.924;2024-03-17T14:07:48;15.50;99.90
1992;DHT22;997;48.448;8.924;2024-03-17T14:10:19;15.60;99.90
1992;DHT22;997;48.448;8.924;2024-03-17T14:12:45;15.60;99.90
1992;DHT22;997;48.448;8.924;2024-03-17T14:15:13;15.50;99.90
1992;DHT22;997;48.448;8.924;2024-03-17T14:17:39;15.30;99.90
1992;DHT22;997;48.448;8.924;2024-03-17T14:20:06;15.50;99.90
1992;DHT22;997;48.448;8.924;2024-03-17T14:22:41;15.70;99.90
1992;DHT22;997;48.448;8.924;2024-03-17T14:25:12;15.80;99.90
1992;DHT22;997;48.448;8.924;2024-03-17T14:27:39;16.00;99.90
1992;DHT22;997;48.448;8.924;2024-03-17T14:30:05;16.00;99.90
1992;DHT22;997;48.448;8.924;2024-03-17T14:32:31;16.00;99.90
1992;DHT22;997;48.448;8.924;2024-03-17T14:34:57;16.10;99.90
1992;DHT22;997;48.448;8.924;2024-03-17T14:37:23;16.00;99.90
1992;DHT22;997;48.448;8.924;2024-03-17T14:39:49;16.10;99.90
1992;DHT22;997;48.448;8.924;2024-03-17T14:42:16;16.10;99.90
1992;DHT22;997;48.448;8.924;2024-03-17T14:44:42;16.10;99.90
1992;DHT22;997;48.448;8.924;2024-03-17T14:47:07;16.10;99.90
1992;DHT22;997;48.448;8.924;2024-03-17T14:49:33;16.20;99.90
1992;DHT22;997;48.448;8.924;2024-03-17T14:51:59;16.00;99.90
1992;DHT22;997;48.448;8.924;2024-03-17T14:54:25;16.10;99.90
1992;DHT22;997;48.448;8.924;2024-03-17T14:56:51;16.30;99.90
1992;DHT22;997;48.448;8.924;2024-03-17T14:59:19;16.40;99.90
1992;DHT22;997;48.448;8.924;2024-03-17T15:01:48;16.40;99.90
1992;DHT22;997;48.448;8.924;2024-03-17T15:04:13;16.50;99.90
1992;DHT22;997;48.448;8.924;2024-03-17T15:06:41;16.30;99.90
1992;DHT22;997;48.448;8.924;2024-03-17T15:09:06;16.00;99.90
1992;DHT22;997;48.448;8.924;2024-03-17T15:11:33;15.90;99.90
1992;DHT22;997;48.448;8.924;2024-03-17T15:13:59;15.90;99.90
1992;DHT22;997;48.448;8.924;2024-03-17T15:16:24;15.70;99.90
1992;DHT22;997;48.448;8.924;2024-03-17T15:18:50;15.50;99.90
1992;DHT22;997;48.448;8.924;2024-03-17T15:21:16;15.40;99.90
1992;DHT22;997;48.448;8.924;2024-03-17T15:23:41;15.50;99.90
1992;DHT22;997;48.448;8.924;2024-03-17T15:26:07;15.50;99.90
1992;DHT22;997;48.448;8.924;2024-03-17T15:28:39;15.30;99.90
1992;DHT22;997;48.448;8.924;2024-03-17T15:31:08;15.20;99.90
1992;DHT22;997;48.448;8.924;2024-03-17T15:33:35;15.10;99.90
1992;DHT22;997;48.448;8.924;2024-03-17T15:36:05;15.10;99.90
1992;DHT22;997;48.448;8.924;2024-03-17T15:38:32;15.00;99.90
1992;DHT22;997;48.448;8.924;2024-03-17T15:40:59;14.90;99.90
1992;DHT22;997;48.448;8.924;2024-03-17T15:43:24;15.00;99.90
1992;DHT22;997;48.448;8.924;2024-03-17T15:45:50;14.90;99.90
1992;DHT22;997;48.448;8.924;2024-03-17T15:48:16;14.80;99.90
1992;DHT22;997;48.448;8.924;2024-03-17T15:50:41;14.70;99.90
1992;DHT22;997;48.448;8.924;2024-03-17T15:53:08;14.80;99.90
1992;DHT22;997;48.448;8.924;2024-03-17T15:55:34;14.80;99.90
1992;DHT22;997;48.448;8.924;2024-03-17T15:58:00;14.60;99.90
1992;DHT22;997;48.448;8.924;2024-03-17T16:00:25;14.70;99.90
1992;DHT22;997;48.448;8.924;2024-03-17T16:02:51;14.80;99.90
1992;DHT22;997;48.448;8.924;2024-03-17T16:05:19;14.60;99.90
1992;DHT22;997;48.448;8.924;2024-03-17T16:07:45;14.50;99.90
1992;DHT22;997;48.448;8.924;2024-03-17T16:10:14;14.50;99.90
1992;DHT22;997;48.448;8.924;2024-03-17T16:12:41;14.60;99.90
1992;DHT22;997;48.448;8.924;2024-03-17T16:15:08;14.70;99.90
1992;DHT22;997;48.448;8.924;2024-03-17T16:17:35;14.70;99.90
1992;DHT22;997;48.448;8.924;2024-03-17T16:20:05;14.70;99.90
1992;DHT22;997;48.448;8.924;2024-03-17T16:22:35;14.80;99.90
1992;DHT22;997;48.448;8.924;2024-03-17T16:25:01;14.80;99.90
1992;DHT22;997;48.448;8.924;2024-03-17T16:27:27;14.80;99.90
1992;DHT22;997;48.448;8.924;2024-03-17T16:29:53;14.90;99.90
1992;DHT22;997;48.448;8.924;2024-03-17T16:32:18;15.00;99.90
1992;DHT22;997;48.448;8.924;2024-03-17T16:34:44;15.20;99.90
1992;DHT22;997;48.448;8.924;2024-03-17T16:37:10;15.30;99.90
1992;DHT22;997;48.448;8.924;2024-03-17T16:39:36;15.00;99.90
1992;DHT22;997;48.448;8.924;2024-03-17T16:42:01;15.00;99.90
1992;DHT22;997;48.448;8.924;2024-03-17T16:44:37;15.10;99.90
1992;DHT22;997;48.448;8.924;2024-03-17T16:49:32;15.10;99.90
1992;DHT22;997;48.448;8.924;2024-03-17T16:52:00;15.10;99.90
1992;DHT22;997;48.448;8.924;2024-03-17T16:54:25;15.20;99.90